Indianapolis, Indiana
Traffic Map
Current Weather Conditions
Indianapolis, Indiana
Broken Clouds
Broken Clouds
49°
Feels Like: 44°
Wind Chill: 44° Ceiling: 12000
Heat Index: 49° Visibility: 10mi
Dew Point: 30° Wind: 13mph
Humidity: 48% Direction: 210° (SSW)
Pressure: 29.88in Gusts: 0mph
Raw Report DataKIND 310654Z 21011KT 10SM BKN120 09/M01 A2988 RMK AO2 SLP118 T00941011
Traffic Incident Summary
Active as of:
Severity:
Category:
InformationThere was an issue retrieving the traffic information for this location. Please try a different location or try again shortly.
Advertisements
Track Severe Weather on mobile